createdAt,value
2024-04-05T00:02:09.632Z,12.40
2024-04-05T00:04:37.537Z,12.44
2024-04-05T00:07:04.695Z,12.47
2024-04-05T00:09:32.303Z,12.49
2024-04-05T00:12:00.163Z,12.52
2024-04-05T00:14:27.715Z,12.53
2024-04-05T00:16:55.181Z,12.51
2024-04-05T00:19:23.188Z,12.50
2024-04-05T00:21:50.283Z,12.46
2024-04-05T00:24:17.748Z,12.43
2024-04-05T00:26:45.575Z,12.43
2024-04-05T00:29:13.129Z,12.40
2024-04-05T00:31:40.687Z,12.38
2024-04-05T00:34:08.440Z,12.35
2024-04-05T00:36:35.890Z,12.34
2024-04-05T00:39:03.447Z,12.36
2024-04-05T00:41:30.830Z,12.37
2024-04-05T00:43:58.360Z,12.37
2024-04-05T00:46:25.675Z,12.36
2024-04-05T00:48:54.130Z,12.34
2024-04-05T00:51:21.647Z,12.32
2024-04-05T00:53:49.432Z,12.30
2024-04-05T00:56:17.154Z,12.27
2024-04-05T00:58:44.341Z,12.23
2024-04-05T01:01:12.498Z,12.19
2024-04-05T01:03:39.897Z,12.14
2024-04-05T01:06:07.682Z,12.09
2024-04-05T01:08:35.798Z,12.09
2024-04-05T01:11:06.377Z,12.10
2024-04-05T01:13:34.019Z,12.09
2024-04-05T01:16:05.874Z,12.08
2024-04-05T01:18:33.893Z,12.08
2024-04-05T01:21:03.432Z,12.04
2024-04-05T01:23:34.799Z,12.01
2024-04-05T01:26:02.787Z,11.99
2024-04-05T01:28:29.892Z,11.96
2024-04-05T01:30:57.887Z,11.93
2024-04-05T01:33:25.800Z,11.92
2024-04-05T01:35:53.054Z,11.91
2024-04-05T01:38:21.175Z,11.90
2024-04-05T01:40:48.851Z,11.88
2024-04-05T01:43:16.329Z,11.88
2024-04-05T01:45:43.743Z,11.88
2024-04-05T01:48:11.401Z,11.87
2024-04-05T01:50:38.580Z,11.85
2024-04-05T01:53:06.011Z,11.83
2024-04-05T01:55:33.716Z,11.81
2024-04-05T01:58:01.836Z,11.78
2024-04-05T02:00:29.665Z,11.74
2024-04-05T02:02:56.911Z,11.71
2024-04-05T02:05:25.026Z,11.70
2024-04-05T02:07:52.479Z,11.70
2024-04-05T02:10:19.757Z,11.71
2024-04-05T02:12:46.856Z,11.73
2024-04-05T02:15:14.232Z,11.73
2024-04-05T02:17:41.742Z,11.73
2024-04-05T02:20:09.084Z,11.69
2024-04-05T02:22:36.533Z,11.61
2024-04-05T02:25:04.289Z,11.51
2024-04-05T02:27:31.483Z,11.45
2024-04-05T02:29:59.227Z,11.41
2024-04-05T02:32:26.803Z,11.39
2024-04-05T02:34:54.270Z,11.38
2024-04-05T02:37:21.822Z,11.36
2024-04-05T02:39:49.496Z,11.36
2024-04-05T02:42:16.633Z,11.36
2024-04-05T02:44:43.898Z,11.33
2024-04-05T02:47:13.178Z,11.31
2024-04-05T02:49:40.352Z,11.26
2024-04-05T02:52:07.987Z,11.21
2024-04-05T02:54:35.622Z,11.17
2024-04-05T02:57:02.903Z,11.14
2024-04-05T02:59:30.265Z,11.09
2024-04-05T03:01:58.090Z,11.03
2024-04-05T03:04:25.218Z,11.00
2024-04-05T03:06:52.944Z,11.01
2024-04-05T03:09:21.174Z,11.01
2024-04-05T03:11:51.108Z,11.02
2024-04-05T03:14:18.480Z,10.99
2024-04-05T03:16:46.429Z,10.97
2024-04-05T03:19:13.743Z,10.93
2024-04-05T03:21:40.997Z,10.90
2024-04-05T03:24:08.775Z,10.90
2024-04-05T03:26:37.794Z,10.90
2024-04-05T03:29:05.488Z,10.89
2024-04-05T03:31:33.339Z,10.88
2024-04-05T03:34:01.100Z,10.84
2024-04-05T03:36:28.349Z,10.85
2024-04-05T03:39:01.626Z,10.90
2024-04-05T03:41:29.634Z,10.93
2024-04-05T03:43:57.766Z,10.94
2024-04-05T03:46:25.182Z,10.93
2024-04-05T03:48:52.520Z,10.91
2024-04-05T03:51:20.166Z,10.88
2024-04-05T03:53:47.602Z,10.87
2024-04-05T03:56:15.930Z,10.91
2024-04-05T03:58:43.513Z,10.95
2024-04-05T04:01:10.710Z,11.01
2024-04-05T04:03:38.507Z,11.07
2024-04-05T04:06:06.079Z,11.12
2024-04-05T04:08:33.238Z,11.20
2024-04-05T04:11:00.875Z,11.25
2024-04-05T04:13:29.035Z,11.30
2024-04-05T04:15:56.716Z,11.33
2024-04-05T04:18:24.218Z,11.37
2024-04-05T04:20:52.417Z,11.40
2024-04-05T04:23:19.677Z,11.43
2024-04-05T04:25:47.721Z,11.46
2024-04-05T04:28:15.650Z,11.51
2024-04-05T04:30:45.944Z,11.57
2024-04-05T04:33:15.488Z,11.62
2024-04-05T04:35:46.535Z,11.66
2024-04-05T04:38:15.678Z,11.68
2024-04-05T04:40:43.447Z,11.72
2024-04-05T04:43:10.794Z,11.74
2024-04-05T04:45:38.332Z,11.75
2024-04-05T04:48:05.781Z,11.81
2024-04-05T04:50:33.284Z,11.89
2024-04-05T04:53:00.877Z,11.96
2024-04-05T04:55:28.233Z,12.01
2024-04-05T04:57:55.778Z,12.07
2024-04-05T05:00:23.074Z,12.12
2024-04-05T05:02:50.716Z,12.14
2024-04-05T05:05:20.589Z,12.16
2024-04-05T05:07:47.881Z,12.19
2024-04-05T05:10:15.143Z,12.21
2024-04-05T05:12:42.568Z,12.24
2024-04-05T05:15:10.063Z,12.24
2024-04-05T05:17:38.755Z,12.27
2024-04-05T05:20:07.846Z,12.29
2024-04-05T05:22:35.379Z,12.30
2024-04-05T05:25:05.271Z,12.34
2024-04-05T05:27:32.844Z,12.39
2024-04-05T05:30:00.183Z,12.44
2024-04-05T05:32:27.757Z,12.54
2024-04-05T05:34:55.303Z,12.69
2024-04-05T05:37:22.874Z,12.91
2024-04-05T05:39:50.336Z,13.22
2024-04-05T05:42:18.070Z,13.76
2024-04-05T05:44:45.306Z,14.44
2024-04-05T05:47:13.151Z,15.25
2024-04-05T05:49:40.714Z,15.77
2024-04-05T05:52:09.683Z,16.61
2024-04-05T05:54:37.271Z,17.97
2024-04-05T05:57:05.174Z,19.32
2024-04-05T05:59:32.639Z,20.65
2024-04-05T06:02:00.463Z,21.78
2024-04-05T06:04:28.567Z,22.64
2024-04-05T06:06:56.353Z,23.16
2024-04-05T06:09:23.867Z,23.56
2024-04-05T06:11:51.892Z,23.91
2024-04-05T06:14:19.424Z,24.28
2024-04-05T06:16:46.692Z,24.63
2024-04-05T06:19:14.038Z,24.89
2024-04-05T06:21:41.399Z,25.21
2024-04-05T06:24:09.567Z,25.52
2024-04-05T06:26:37.252Z,26.00
2024-04-05T06:29:04.536Z,26.35
2024-04-05T06:31:32.330Z,26.68
2024-04-05T06:33:59.826Z,26.98
2024-04-05T06:36:28.921Z,26.91
2024-04-05T06:38:56.189Z,26.92
2024-04-05T06:41:23.590Z,27.20
2024-04-05T06:43:52.072Z,27.70
2024-04-05T06:46:20.768Z,28.02
2024-04-05T06:48:48.273Z,28.24
2024-04-05T06:51:17.726Z,28.62
2024-04-05T06:53:45.087Z,28.93
2024-04-05T06:56:12.783Z,28.76
2024-04-05T06:58:40.261Z,28.16
2024-04-05T07:01:07.678Z,27.56
2024-04-05T07:03:34.966Z,26.77
2024-04-05T07:06:03.764Z,25.72
2024-04-05T07:08:34.636Z,24.55
2024-04-05T07:11:02.158Z,23.61
2024-04-05T07:13:32.047Z,23.33
2024-04-05T07:16:00.945Z,23.49
2024-04-05T07:18:28.630Z,23.46
2024-04-05T07:20:56.245Z,23.27
2024-04-05T07:23:24.929Z,23.59
2024-04-05T07:25:54.004Z,23.61
2024-04-05T07:28:22.862Z,23.50
2024-04-05T07:30:52.988Z,23.91
2024-04-05T07:33:22.432Z,24.97
2024-04-05T07:35:51.739Z,26.00
2024-04-05T07:38:18.904Z,26.78
2024-04-05T07:40:46.511Z,27.31
2024-04-05T07:43:13.845Z,27.68
2024-04-05T07:45:41.138Z,27.81
2024-04-05T07:48:08.970Z,27.55
2024-04-05T07:50:36.416Z,27.20
2024-04-05T07:53:04.344Z,27.07
2024-04-05T07:55:32.337Z,27.06
2024-04-05T07:58:06.665Z,26.80
2024-04-05T08:00:35.963Z,26.47
2024-04-05T08:03:04.583Z,26.07
2024-04-05T08:05:32.688Z,26.09
2024-04-05T08:08:00.440Z,26.49
2024-04-05T08:10:28.057Z,26.92
2024-04-05T08:13:01.300Z,27.36
2024-04-05T08:15:30.844Z,27.54
2024-04-05T08:18:02.296Z,27.58
2024-04-05T08:20:29.863Z,27.52
2024-04-05T08:22:57.099Z,27.55
2024-04-05T08:25:24.635Z,27.63
2024-04-05T08:27:52.042Z,27.50
2024-04-05T08:30:19.415Z,27.25
2024-04-05T08:32:46.920Z,26.90
2024-04-05T08:35:14.673Z,26.37
2024-04-05T08:37:44.489Z,25.84
2024-04-05T08:40:12.419Z,25.40
2024-04-05T08:42:42.876Z,24.95
2024-04-05T08:45:13.595Z,24.65
2024-04-05T08:47:42.200Z,24.47
2024-04-05T08:50:09.591Z,24.21
2024-04-05T08:52:38.073Z,24.01
2024-04-05T08:55:07.254Z,23.78
2024-04-05T08:57:36.830Z,23.72
2024-04-05T09:00:07.381Z,23.75
2024-04-05T09:02:36.744Z,23.76
2024-04-05T09:05:05.252Z,23.70
2024-04-05T09:07:36.308Z,23.66
2024-04-05T09:10:20.496Z,23.68
2024-04-05T09:12:52.440Z,23.75
2024-04-05T09:15:22.239Z,23.97
2024-04-05T09:17:53.198Z,24.24
2024-04-05T09:20:25.062Z,24.56
2024-04-05T09:23:07.860Z,24.86
2024-04-05T09:25:39.197Z,24.85
2024-04-05T09:28:08.080Z,24.46
2024-04-05T09:30:36.343Z,24.12
2024-04-05T09:33:04.260Z,23.86
2024-04-05T09:35:33.921Z,23.67
2024-04-05T09:38:05.603Z,23.44
2024-04-05T09:40:35.686Z,23.27
2024-04-05T09:43:04.493Z,23.25
2024-04-05T09:45:35.225Z,23.31
2024-04-05T09:48:04.037Z,23.30
2024-04-05T09:50:31.717Z,23.21
2024-04-05T09:53:00.985Z,23.13
2024-04-05T09:55:30.126Z,22.99
2024-04-05T09:57:57.573Z,22.72
2024-04-05T10:00:27.998Z,22.46
2024-04-05T10:02:57.931Z,22.28
2024-04-05T10:05:33.319Z,22.19
2024-04-05T10:08:17.416Z,22.32
2024-04-05T10:10:45.790Z,22.66
2024-04-05T10:13:16.272Z,22.91
2024-04-05T10:15:55.352Z,22.93
2024-04-05T10:18:27.239Z,22.80
2024-04-05T10:21:09.001Z,22.62
2024-04-05T10:23:37.988Z,22.48
2024-04-05T10:26:12.333Z,22.43
2024-04-05T10:28:43.244Z,22.31
2024-04-05T10:31:11.896Z,22.23
2024-04-05T10:33:39.459Z,22.28
2024-04-05T10:36:08.613Z,22.36
2024-04-05T10:38:46.453Z,22.54
2024-04-05T10:41:19.609Z,22.66
2024-04-05T10:43:47.714Z,22.71
2024-04-05T10:46:19.036Z,22.79
2024-04-05T10:48:57.952Z,22.81
2024-04-05T10:51:26.505Z,22.68
2024-04-05T10:53:57.232Z,22.58
2024-04-05T10:56:25.199Z,22.54
2024-04-05T10:58:52.621Z,22.50
2024-04-05T11:01:20.252Z,22.46
2024-04-05T11:03:47.781Z,22.39
2024-04-05T11:06:16.050Z,22.50
2024-04-05T11:08:53.013Z,22.61
2024-04-05T11:11:20.615Z,22.76
2024-04-05T11:13:48.476Z,22.88
2024-04-05T11:16:17.606Z,22.99
2024-04-05T11:18:45.896Z,23.08
2024-04-05T11:21:17.331Z,23.11
2024-04-05T11:23:50.408Z,23.06
2024-04-05T11:26:22.679Z,22.94
2024-04-05T11:28:50.175Z,22.79
2024-04-05T11:31:17.384Z,22.62
2024-04-05T11:33:44.801Z,22.42
2024-04-05T11:36:12.369Z,22.29
2024-04-05T11:38:39.522Z,22.16
2024-04-05T11:41:07.143Z,21.99
2024-04-05T11:43:34.587Z,21.78
2024-04-05T11:46:01.793Z,21.67
2024-04-05T11:48:29.914Z,21.59
2024-04-05T11:50:57.756Z,21.53
2024-04-05T11:53:25.584Z,21.49
2024-04-05T11:55:53.059Z,21.54
2024-04-05T11:58:20.603Z,21.59
2024-04-05T12:00:51.455Z,21.56
2024-04-05T12:03:19.523Z,21.49
2024-04-05T12:05:46.940Z,21.40
2024-04-05T12:08:14.246Z,21.37
2024-04-05T12:10:42.735Z,21.39
2024-04-05T12:13:10.499Z,21.45
2024-04-05T12:15:38.204Z,21.46
2024-04-05T12:18:06.280Z,21.46
2024-04-05T12:20:33.817Z,21.36
2024-04-05T12:23:00.972Z,21.24
2024-04-05T12:25:28.818Z,21.18
2024-04-05T12:27:56.383Z,21.15
2024-04-05T12:30:23.588Z,21.19
2024-04-05T12:32:50.944Z,21.25
2024-04-05T12:35:19.372Z,21.34
2024-04-05T12:37:52.555Z,21.41
2024-04-05T12:40:25.952Z,21.46
2024-04-05T12:42:53.164Z,21.49
2024-04-05T12:45:24.713Z,21.50
2024-04-05T12:47:52.010Z,21.58
2024-04-05T12:50:20.902Z,21.74
2024-04-05T12:52:48.661Z,21.81
2024-04-05T12:55:17.827Z,21.72
2024-04-05T12:57:45.096Z,21.67
2024-04-05T13:00:15.421Z,21.77
2024-04-05T13:02:42.882Z,21.80
2024-04-05T13:05:10.594Z,21.74
2024-04-05T13:07:37.944Z,21.76
2024-04-05T13:10:05.934Z,21.85
2024-04-05T13:12:33.305Z,22.01
2024-04-05T13:15:00.749Z,22.01
2024-04-05T13:17:28.076Z,21.92
2024-04-05T13:19:56.282Z,21.83
2024-04-05T13:22:25.913Z,21.86
2024-04-05T13:24:54.315Z,21.98
2024-04-05T13:27:21.551Z,22.09
2024-04-05T13:29:55.393Z,22.16
2024-04-05T13:32:29.374Z,22.16
2024-04-05T13:34:56.687Z,22.11
2024-04-05T13:37:23.978Z,22.07
2024-04-05T13:39:51.665Z,22.03
2024-04-05T13:42:18.995Z,22.02
2024-04-05T13:44:46.365Z,21.95
2024-04-05T13:47:13.993Z,21.90
2024-04-05T13:49:41.261Z,21.90
2024-04-05T13:52:11.166Z,21.90
2024-04-05T13:54:38.573Z,21.87
2024-04-05T13:57:08.347Z,21.85
2024-04-05T13:59:35.819Z,21.86
2024-04-05T14:02:07.654Z,21.78
2024-04-05T14:04:36.807Z,21.68
2024-04-05T14:07:04.483Z,21.61
2024-04-05T14:09:34.605Z,21.53
2024-04-05T14:12:01.895Z,21.49
2024-04-05T14:14:29.372Z,21.44
2024-04-05T14:16:56.873Z,21.38
2024-04-05T14:19:24.225Z,21.37
2024-04-05T14:21:51.793Z,21.32
2024-04-05T14:24:18.998Z,21.26
2024-04-05T14:26:47.826Z,21.24
2024-04-05T14:29:15.094Z,21.19
2024-04-05T14:31:42.818Z,21.10
2024-04-05T14:34:10.039Z,21.02
2024-04-05T14:36:37.698Z,20.95
2024-04-05T14:39:08.929Z,20.94
2024-04-05T14:41:36.527Z,20.98
2024-04-05T14:44:04.886Z,21.05
2024-04-05T14:46:32.567Z,21.11
2024-04-05T14:49:03.012Z,21.05
2024-04-05T14:51:35.587Z,21.00
2024-04-05T14:54:03.709Z,20.98
2024-04-05T14:56:30.956Z,20.93
2024-04-05T14:58:59.320Z,20.92
2024-04-05T15:01:27.099Z,20.86
2024-04-05T15:03:54.713Z,20.78
2024-04-05T15:06:26.645Z,20.69
2024-04-05T15:08:54.158Z,20.61
2024-04-05T15:11:21.303Z,20.49
2024-04-05T15:13:49.848Z,20.37
2024-04-05T15:16:18.509Z,20.27
2024-04-05T15:18:47.836Z,20.24
2024-04-05T15:21:16.209Z,20.27
2024-04-05T15:23:46.704Z,20.30
2024-04-05T15:26:14.718Z,20.36
2024-04-05T15:28:42.482Z,20.42
2024-04-05T15:31:09.883Z,20.48
2024-04-05T15:33:43.245Z,20.51
2024-04-05T15:36:13.174Z,20.52
2024-04-05T15:38:46.188Z,20.49
2024-04-05T15:41:14.674Z,20.46
2024-04-05T15:43:43.954Z,20.38
2024-04-05T15:46:15.388Z,20.30
2024-04-05T15:48:43.675Z,20.23
2024-04-05T15:51:13.330Z,20.13
2024-04-05T15:53:48.778Z,20.04
2024-04-05T15:56:16.238Z,19.98
2024-04-05T15:58:43.521Z,19.93
2024-04-05T16:01:11.125Z,19.86
2024-04-05T16:03:40.032Z,19.80
2024-04-05T16:06:08.147Z,19.76
2024-04-05T16:08:35.960Z,19.70
2024-04-05T16:11:05.420Z,19.65
2024-04-05T16:13:33.116Z,19.61
2024-04-05T16:16:02.210Z,19.55
2024-04-05T16:18:30.469Z,19.50
2024-04-05T16:21:05.608Z,19.45
2024-04-05T16:23:33.217Z,19.39
2024-04-05T16:26:05.156Z,19.33
2024-04-05T16:28:36.999Z,19.27
2024-04-05T16:31:07.308Z,19.22
2024-04-05T16:33:35.036Z,19.17
2024-04-05T16:36:04.830Z,19.13
2024-04-05T16:38:35.596Z,19.08
2024-04-05T16:41:03.351Z,19.02
2024-04-05T16:43:40.648Z,18.94
2024-04-05T16:46:10.246Z,18.89
2024-04-05T16:48:42.150Z,18.84
2024-04-05T16:51:21.663Z,18.81
2024-04-05T16:53:50.546Z,18.77
2024-04-05T16:56:18.430Z,18.75
2024-04-05T16:58:47.317Z,18.72
2024-04-05T17:01:21.111Z,18.68
2024-04-05T17:04:00.203Z,18.63
2024-04-05T17:06:46.487Z,18.60
2024-04-05T17:09:35.333Z,18.54
2024-04-05T17:12:31.159Z,18.50
2024-04-05T17:15:20.828Z,18.49
2024-04-05T17:17:59.506Z,18.48
2024-04-05T17:20:41.554Z,18.47
2024-04-05T17:23:36.042Z,18.45
2024-04-05T17:26:18.203Z,18.43
2024-04-05T17:28:57.056Z,18.40
2024-04-05T17:31:39.785Z,18.38
2024-04-05T17:34:18.362Z,18.35
2024-04-05T17:36:52.478Z,18.34
2024-04-05T17:39:25.260Z,18.35
2024-04-05T17:42:02.282Z,18.36
2024-04-05T17:44:38.355Z,18.36
2024-04-05T17:47:13.787Z,18.35
2024-04-05T17:49:42.422Z,18.34
2024-04-05T17:52:12.061Z,18.33
2024-04-05T17:54:39.337Z,18.31
2024-04-05T17:57:07.126Z,18.30
2024-04-05T17:59:37.701Z,18.30
2024-04-05T18:02:05.385Z,18.28
2024-04-05T18:04:34.122Z,18.29
2024-04-05T18:07:01.622Z,18.28
2024-04-05T18:09:28.878Z,18.27
2024-04-05T18:11:56.326Z,18.26
2024-04-05T18:14:26.251Z,18.23
2024-04-05T18:16:54.562Z,18.22
2024-04-05T18:19:22.066Z,18.21
2024-04-05T18:21:50.096Z,18.20
2024-04-05T18:24:17.263Z,18.22
2024-04-05T18:26:44.723Z,18.22
2024-04-05T18:29:13.017Z,18.21
2024-04-05T18:31:40.231Z,18.19
2024-04-05T18:34:07.806Z,18.18
2024-04-05T18:36:35.952Z,18.16
2024-04-05T18:39:05.235Z,18.14
2024-04-05T18:41:33.868Z,18.12
2024-04-05T18:44:01.549Z,18.11
2024-04-05T18:46:39.227Z,18.11
2024-04-05T18:49:14.977Z,18.11
2024-04-05T18:51:43.770Z,18.11
2024-04-05T18:54:14.247Z,18.11
2024-04-05T18:56:41.685Z,18.12
2024-04-05T18:59:16.292Z,18.13
2024-04-05T19:01:44.436Z,18.13
2024-04-05T19:04:14.442Z,18.13
2024-04-05T19:06:44.580Z,18.12
2024-04-05T19:09:12.095Z,18.11
2024-04-05T19:11:39.754Z,18.10
2024-04-05T19:14:08.750Z,18.11
2024-04-05T19:16:36.979Z,18.10
2024-04-05T19:19:04.607Z,18.09
2024-04-05T19:21:36.540Z,18.07
2024-04-05T19:24:05.801Z,18.05
2024-04-05T19:26:33.379Z,18.03
2024-04-05T19:29:05.113Z,18.03
2024-04-05T19:31:33.072Z,18.03
2024-04-05T19:34:02.571Z,18.04
2024-04-05T19:36:31.733Z,18.06
2024-04-05T19:39:00.905Z,18.07
2024-04-05T19:41:32.401Z,18.08
2024-04-05T19:44:01.457Z,18.10
2024-04-05T19:46:28.866Z,18.10
2024-04-05T19:48:56.214Z,18.10
2024-04-05T19:51:24.236Z,18.09
2024-04-05T19:53:51.591Z,18.09
2024-04-05T19:56:19.266Z,18.08
2024-04-05T19:58:49.690Z,18.07
2024-04-05T20:01:17.029Z,18.05
2024-04-05T20:03:44.762Z,18.02
2024-04-05T20:06:12.681Z,17.99
2024-04-05T20:08:40.507Z,17.97
2024-04-05T20:11:09.506Z,17.96
2024-04-05T20:13:38.323Z,17.96
2024-04-05T20:16:08.764Z,17.95
2024-04-05T20:18:36.549Z,17.94
2024-04-05T20:21:03.985Z,17.92
2024-04-05T20:23:31.107Z,17.90
2024-04-05T20:25:58.641Z,17.88
2024-04-05T20:28:47.777Z,17.87
2024-04-05T20:31:33.934Z,17.85
2024-04-05T20:34:03.104Z,17.83
2024-04-05T20:36:30.883Z,17.82
2024-04-05T20:38:58.073Z,17.80
2024-04-05T20:41:26.184Z,17.80
2024-04-05T20:43:54.256Z,17.80
2024-04-05T20:46:21.492Z,17.81
2024-04-05T20:48:49.790Z,17.81
2024-04-05T20:51:17.808Z,17.83
2024-04-05T20:53:45.019Z,17.84
2024-04-05T20:56:13.047Z,17.85
2024-04-05T20:58:40.608Z,17.86
2024-04-05T21:01:07.932Z,17.88
2024-04-05T21:03:35.723Z,17.89
2024-04-05T21:06:03.469Z,17.90
2024-04-05T21:08:31.289Z,17.90
2024-04-05T21:10:58.924Z,17.90
2024-04-05T21:13:27.801Z,17.89
2024-04-05T21:15:55.020Z,17.89
2024-04-05T21:18:22.413Z,17.89
2024-04-05T21:20:51.025Z,17.88
2024-04-05T21:23:18.248Z,17.88
2024-04-05T21:25:46.107Z,17.89
2024-04-05T21:28:13.393Z,17.88
2024-04-05T21:30:40.532Z,17.87
2024-04-05T21:33:08.386Z,17.86
2024-04-05T21:35:36.298Z,17.85
2024-04-05T21:38:03.659Z,17.85
2024-04-05T21:40:31.692Z,17.86
2024-04-05T21:42:59.214Z,17.85
2024-04-05T21:45:26.769Z,17.82
2024-04-05T21:47:54.547Z,17.79
2024-04-05T21:50:22.283Z,17.74
2024-04-05T21:52:49.535Z,17.70
2024-04-05T21:55:18.793Z,17.66
2024-04-05T21:57:46.059Z,17.63
2024-04-05T22:00:20.097Z,17.61
2024-04-05T22:02:48.605Z,17.61
2024-04-05T22:05:16.288Z,17.59
2024-04-05T22:07:44.713Z,17.59
2024-04-05T22:10:13.219Z,17.57
2024-04-05T22:12:40.348Z,17.54
2024-04-05T22:15:08.173Z,17.50
2024-04-05T22:17:35.752Z,17.47
2024-04-05T22:20:03.443Z,17.46
2024-04-05T22:22:33.868Z,17.44
2024-04-05T22:25:01.430Z,17.41
2024-04-05T22:27:29.326Z,17.39
2024-04-05T22:29:57.633Z,17.36
2024-04-05T22:32:24.962Z,17.35
2024-04-05T22:34:52.493Z,17.35
2024-04-05T22:37:20.019Z,17.35
2024-04-05T22:39:47.489Z,17.35
2024-04-05T22:42:14.717Z,17.34
2024-04-05T22:44:42.087Z,17.33
2024-04-05T22:47:11.543Z,17.34
2024-04-05T22:49:38.770Z,17.35
2024-04-05T22:52:06.511Z,17.34
2024-04-05T22:54:33.766Z,17.36
2024-04-05T22:57:00.918Z,17.37
2024-04-05T22:59:28.570Z,17.39
2024-04-05T23:01:56.046Z,17.41
2024-04-05T23:04:24.913Z,17.40
2024-04-05T23:06:52.474Z,17.38
2024-04-05T23:09:19.957Z,17.36
2024-04-05T23:11:47.152Z,17.35
2024-04-05T23:14:14.640Z,17.36
2024-04-05T23:16:44.180Z,17.39
2024-04-05T23:19:11.301Z,17.42
2024-04-05T23:21:38.522Z,17.43
2024-04-05T23:24:06.515Z,17.44
2024-04-05T23:26:33.653Z,17.46
2024-04-05T23:29:01.128Z,17.48
2024-04-05T23:31:29.063Z,17.49
2024-04-05T23:33:56.971Z,17.49
2024-04-05T23:36:24.199Z,17.48
2024-04-05T23:38:52.054Z,17.46
2024-04-05T23:41:19.357Z,17.45
2024-04-05T23:43:48.555Z,17.44
2024-04-05T23:46:19.074Z,17.43
2024-04-05T23:48:46.241Z,17.40
2024-04-05T23:51:13.688Z,17.39
2024-04-05T23:53:45.944Z,17.37
2024-04-05T23:56:14.679Z,17.35
2024-04-05T23:58:41.831Z,17.33
